sensor_id;sensor_type;location;lat;lon;timestamp;temperature;humidity
11188;DHT22;5650;52.700;7.306;2023-10-31T00:00:45;12.50;99.90
11188;DHT22;5650;52.700;7.306;2023-10-31T00:03:15;12.50;99.90
11188;DHT22;5650;52.700;7.306;2023-10-31T00:05:45;12.50;99.90
11188;DHT22;5650;52.700;7.306;2023-10-31T00:08:18;12.50;99.90
11188;DHT22;5650;52.700;7.306;2023-10-31T00:10:45;12.50;99.90
11188;DHT22;5650;52.700;7.306;2023-10-31T00:13:14;12.50;99.90
11188;DHT22;5650;52.700;7.306;2023-10-31T00:15:41;12.50;99.90
11188;DHT22;5650;52.700;7.306;2023-10-31T00:18:08;12.50;99.90
11188;DHT22;5650;52.700;7.306;2023-10-31T00:20:35;12.50;99.90
11188;DHT22;5650;52.700;7.306;2023-10-31T00:23:22;12.50;99.90
11188;DHT22;5650;52.700;7.306;2023-10-31T00:25:49;12.50;99.90
11188;DHT22;5650;52.700;7.306;2023-10-31T00:28:20;12.50;99.90
11188;DHT22;5650;52.700;7.306;2023-10-31T00:30:53;12.50;99.90
11188;DHT22;5650;52.700;7.306;2023-10-31T00:33:24;12.50;99.90
11188;DHT22;5650;52.700;7.306;2023-10-31T00:35:53;12.50;99.90
11188;DHT22;5650;52.700;7.306;2023-10-31T00:38:23;12.50;99.90
11188;DHT22;5650;52.700;7.306;2023-10-31T00:40:54;12.50;99.90
11188;DHT22;5650;52.700;7.306;2023-10-31T00:43:22;12.50;99.90
11188;DHT22;5650;52.700;7.306;2023-10-31T00:45:49;12.60;99.90
11188;DHT22;5650;52.700;7.306;2023-10-31T00:48:19;12.60;99.90
11188;DHT22;5650;52.700;7.306;2023-10-31T00:50:48;12.60;99.90
11188;DHT22;5650;52.700;7.306;2023-10-31T00:53:18;12.60;99.90
11188;DHT22;5650;52.700;7.306;2023-10-31T00:55:46;12.60;99.90
11188;DHT22;5650;52.700;7.306;2023-10-31T00:58:16;12.60;99.90
11188;DHT22;5650;52.700;7.306;2023-10-31T01:00:45;12.60;99.90
11188;DHT22;5650;52.700;7.306;2023-10-31T01:03:18;12.60;99.90
11188;DHT22;5650;52.700;7.306;2023-10-31T01:05:45;12.60;99.90
11188;DHT22;5650;52.700;7.306;2023-10-31T01:08:20;12.60;99.90
11188;DHT22;5650;52.700;7.306;2023-10-31T01:10:48;12.60;99.90
11188;DHT22;5650;52.700;7.306;2023-10-31T01:13:15;12.60;99.90
11188;DHT22;5650;52.700;7.306;2023-10-31T01:15:44;12.60;99.90
11188;DHT22;5650;52.700;7.306;2023-10-31T01:18:17;12.60;99.90
11188;DHT22;5650;52.700;7.306;2023-10-31T01:20:47;12.60;99.90
11188;DHT22;5650;52.700;7.306;2023-10-31T01:23:14;12.60;99.90
11188;DHT22;5650;52.700;7.306;2023-10-31T01:25:47;12.60;99.90
11188;DHT22;5650;52.700;7.306;2023-10-31T01:28:15;12.60;99.90
11188;DHT22;5650;52.700;7.306;2023-10-31T01:30:46;12.60;99.90
11188;DHT22;5650;52.700;7.306;2023-10-31T01:33:13;12.60;99.90
11188;DHT22;5650;52.700;7.306;2023-10-31T01:35:43;12.60;99.90
11188;DHT22;5650;52.700;7.306;2023-10-31T01:38:13;12.60;99.90
11188;DHT22;5650;52.700;7.306;2023-10-31T01:40:49;12.60;99.90
11188;DHT22;5650;52.700;7.306;2023-10-31T01:43:33;12.60;99.90
11188;DHT22;5650;52.700;7.306;2023-10-31T01:46:05;12.60;99.90
11188;DHT22;5650;52.700;7.306;2023-10-31T01:48:38;12.60;99.90
11188;DHT22;5650;52.700;7.306;2023-10-31T01:51:10;12.60;99.90
11188;DHT22;5650;52.700;7.306;2023-10-31T01:53:37;12.60;99.90
11188;DHT22;5650;52.700;7.306;2023-10-31T01:56:07;12.60;99.90
11188;DHT22;5650;52.700;7.306;2023-10-31T01:58:36;12.60;99.90
11188;DHT22;5650;52.700;7.306;2023-10-31T02:01:05;12.60;99.90
11188;DHT22;5650;52.700;7.306;2023-10-31T02:03:33;12.60;99.90
11188;DHT22;5650;52.700;7.306;2023-10-31T02:06:00;12.60;99.90
11188;DHT22;5650;52.700;7.306;2023-10-31T02:08:32;12.60;99.90
11188;DHT22;5650;52.700;7.306;2023-10-31T02:10:59;12.60;99.90
11188;DHT22;5650;52.700;7.306;2023-10-31T02:13:26;12.60;99.90
11188;DHT22;5650;52.700;7.306;2023-10-31T02:15:54;12.60;99.90
11188;DHT22;5650;52.700;7.306;2023-10-31T02:18:25;12.60;99.90
11188;DHT22;5650;52.700;7.306;2023-10-31T02:20:58;12.60;99.90
11188;DHT22;5650;52.700;7.306;2023-10-31T02:23:27;12.60;99.90
11188;DHT22;5650;52.700;7.306;2023-10-31T02:25:57;12.60;99.90
11188;DHT22;5650;52.700;7.306;2023-10-31T02:28:24;12.60;99.90
11188;DHT22;5650;52.700;7.306;2023-10-31T02:30:53;12.60;99.90
11188;DHT22;5650;52.700;7.306;2023-10-31T02:33:27;12.60;99.90
11188;DHT22;5650;52.700;7.306;2023-10-31T02:35:57;12.60;99.90
11188;DHT22;5650;52.700;7.306;2023-10-31T02:38:28;12.60;99.90
11188;DHT22;5650;52.700;7.306;2023-10-31T02:40:55;12.60;99.90
11188;DHT22;5650;52.700;7.306;2023-10-31T02:43:28;12.50;99.90
11188;DHT22;5650;52.700;7.306;2023-10-31T02:45:56;12.60;99.90
11188;DHT22;5650;52.700;7.306;2023-10-31T02:48:26;12.50;99.90
11188;DHT22;5650;52.700;7.306;2023-10-31T02:50:53;12.50;99.90
11188;DHT22;5650;52.700;7.306;2023-10-31T02:53:20;12.50;99.90
11188;DHT22;5650;52.700;7.306;2023-10-31T02:55:52;12.50;99.90
11188;DHT22;5650;52.700;7.306;2023-10-31T02:58:19;12.50;99.90
11188;DHT22;5650;52.700;7.306;2023-10-31T03:00:46;12.50;99.90
11188;DHT22;5650;52.700;7.306;2023-10-31T03:03:13;12.50;99.90
11188;DHT22;5650;52.700;7.306;2023-10-31T03:05:40;12.50;99.90
11188;DHT22;5650;52.700;7.306;2023-10-31T03:08:08;12.40;99.90
11188;DHT22;5650;52.700;7.306;2023-10-31T03:10:42;12.30;99.90
11188;DHT22;5650;52.700;7.306;2023-10-31T03:13:13;12.10;99.90
11188;DHT22;5650;52.700;7.306;2023-10-31T03:15:43;11.90;99.90
11188;DHT22;5650;52.700;7.306;2023-10-31T03:18:16;11.70;99.90
11188;DHT22;5650;52.700;7.306;2023-10-31T03:20:46;11.60;99.90
11188;DHT22;5650;52.700;7.306;2023-10-31T03:23:14;11.50;99.90
11188;DHT22;5650;52.700;7.306;2023-10-31T03:25:47;11.50;99.90
11188;DHT22;5650;52.700;7.306;2023-10-31T03:28:21;11.40;99.90
11188;DHT22;5650;52.700;7.306;2023-10-31T03:30:50;11.30;99.90
11188;DHT22;5650;52.700;7.306;2023-10-31T03:33:17;11.30;99.90
11188;DHT22;5650;52.700;7.306;2023-10-31T03:35:48;11.20;99.90
11188;DHT22;5650;52.700;7.306;2023-10-31T03:38:18;11.20;99.90
11188;DHT22;5650;52.700;7.306;2023-10-31T03:40:45;11.20;99.90
11188;DHT22;5650;52.700;7.306;2023-10-31T03:43:13;11.10;99.90
11188;DHT22;5650;52.700;7.306;2023-10-31T03:45:46;11.10;99.90
11188;DHT22;5650;52.700;7.306;2023-10-31T03:48:16;11.00;99.90
11188;DHT22;5650;52.700;7.306;2023-10-31T03:50:43;11.00;99.90
11188;DHT22;5650;52.700;7.306;2023-10-31T03:53:14;11.00;99.90
11188;DHT22;5650;52.700;7.306;2023-10-31T03:55:50;10.90;99.90
11188;DHT22;5650;52.700;7.306;2023-10-31T03:58:20;10.90;99.90
11188;DHT22;5650;52.700;7.306;2023-10-31T04:00:54;10.90;99.90
11188;DHT22;5650;52.700;7.306;2023-10-31T04:03:23;10.90;99.90
11188;DHT22;5650;52.700;7.306;2023-10-31T04:05:51;10.80;99.90
11188;DHT22;5650;52.700;7.306;2023-10-31T04:08:18;10.80;99.90
11188;DHT22;5650;52.700;7.306;2023-10-31T04:10:45;10.80;99.90
11188;DHT22;5650;52.700;7.306;2023-10-31T04:13:15;10.80;99.90
11188;DHT22;5650;52.700;7.306;2023-10-31T04:15:48;10.80;99.90
11188;DHT22;5650;52.700;7.306;2023-10-31T04:18:17;10.80;99.90
11188;DHT22;5650;52.700;7.306;2023-10-31T04:20:44;10.70;99.90
11188;DHT22;5650;52.700;7.306;2023-10-31T04:23:13;10.70;99.90
11188;DHT22;5650;52.700;7.306;2023-10-31T04:25:43;10.80;99.90
11188;DHT22;5650;52.700;7.306;2023-10-31T04:28:14;10.70;99.90
11188;DHT22;5650;52.700;7.306;2023-10-31T04:30:42;10.80;99.90
11188;DHT22;5650;52.700;7.306;2023-10-31T04:33:09;10.80;99.90
11188;DHT22;5650;52.700;7.306;2023-10-31T04:35:40;10.80;99.90
11188;DHT22;5650;52.700;7.306;2023-10-31T04:38:11;10.80;99.90
11188;DHT22;5650;52.700;7.306;2023-10-31T04:40:38;10.80;99.90
11188;DHT22;5650;52.700;7.306;2023-10-31T04:43:05;10.70;99.90
11188;DHT22;5650;52.700;7.306;2023-10-31T04:45:41;10.80;99.90
11188;DHT22;5650;52.700;7.306;2023-10-31T04:48:09;10.80;99.90
11188;DHT22;5650;52.700;7.306;2023-10-31T04:50:43;10.80;99.90
11188;DHT22;5650;52.700;7.306;2023-10-31T04:53:13;10.80;99.90
11188;DHT22;5650;52.700;7.306;2023-10-31T04:55:44;10.80;99.90
11188;DHT22;5650;52.700;7.306;2023-10-31T04:58:14;10.80;99.90
11188;DHT22;5650;52.700;7.306;2023-10-31T05:00:41;10.80;99.90
11188;DHT22;5650;52.700;7.306;2023-10-31T05:03:15;10.80;99.90
11188;DHT22;5650;52.700;7.306;2023-10-31T05:05:45;10.80;99.90
11188;DHT22;5650;52.700;7.306;2023-10-31T05:08:12;10.80;99.90
11188;DHT22;5650;52.700;7.306;2023-10-31T05:10:38;10.80;99.90
11188;DHT22;5650;52.700;7.306;2023-10-31T05:13:09;10.80;99.90
11188;DHT22;5650;52.700;7.306;2023-10-31T05:15:36;10.90;99.90
11188;DHT22;5650;52.700;7.306;2023-10-31T05:18:03;10.90;99.90
11188;DHT22;5650;52.700;7.306;2023-10-31T05:20:31;10.90;99.90
11188;DHT22;5650;52.700;7.306;2023-10-31T05:22:59;10.90;99.90
11188;DHT22;5650;52.700;7.306;2023-10-31T05:25:27;10.90;99.90
11188;DHT22;5650;52.700;7.306;2023-10-31T05:27:54;10.80;99.90
11188;DHT22;5650;52.700;7.306;2023-10-31T05:30:21;10.80;99.90
11188;DHT22;5650;52.700;7.306;2023-10-31T05:32:57;10.80;99.90
11188;DHT22;5650;52.700;7.306;2023-10-31T05:35:28;10.80;99.90
11188;DHT22;5650;52.700;7.306;2023-10-31T05:37:55;10.80;99.90
11188;DHT22;5650;52.700;7.306;2023-10-31T05:40:23;10.70;99.90
11188;DHT22;5650;52.700;7.306;2023-10-31T05:42:53;10.80;99.90
11188;DHT22;5650;52.700;7.306;2023-10-31T05:45:26;10.80;99.90
11188;DHT22;5650;52.700;7.306;2023-10-31T05:47:53;10.80;99.90
11188;DHT22;5650;52.700;7.306;2023-10-31T05:50:20;10.70;99.90
11188;DHT22;5650;52.700;7.306;2023-10-31T05:52:49;10.70;99.90
11188;DHT22;5650;52.700;7.306;2023-10-31T05:55:17;10.70;99.90
11188;DHT22;5650;52.700;7.306;2023-10-31T05:57:48;10.70;99.90
11188;DHT22;5650;52.700;7.306;2023-10-31T06:00:16;10.70;99.90
11188;DHT22;5650;52.700;7.306;2023-10-31T06:02:43;10.70;99.90
11188;DHT22;5650;52.700;7.306;2023-10-31T06:05:10;10.70;99.90
11188;DHT22;5650;52.700;7.306;2023-10-31T06:07:40;10.70;99.90
11188;DHT22;5650;52.700;7.306;2023-10-31T06:10:08;10.70;99.90
11188;DHT22;5650;52.700;7.306;2023-10-31T06:12:38;10.70;99.90
11188;DHT22;5650;52.700;7.306;2023-10-31T06:15:10;10.70;99.90
11188;DHT22;5650;52.700;7.306;2023-10-31T06:17:37;10.70;99.90
11188;DHT22;5650;52.700;7.306;2023-10-31T06:20:09;10.70;99.90
11188;DHT22;5650;52.700;7.306;2023-10-31T06:22:36;10.70;99.90
11188;DHT22;5650;52.700;7.306;2023-10-31T06:25:07;10.70;99.90
11188;DHT22;5650;52.700;7.306;2023-10-31T06:27:39;10.70;99.90
11188;DHT22;5650;52.700;7.306;2023-10-31T06:30:17;10.70;99.90
11188;DHT22;5650;52.700;7.306;2023-10-31T06:32:44;10.70;99.90
11188;DHT22;5650;52.700;7.306;2023-10-31T06:35:17;10.70;99.90
11188;DHT22;5650;52.700;7.306;2023-10-31T06:37:47;10.70;99.90
11188;DHT22;5650;52.700;7.306;2023-10-31T06:40:24;10.70;99.90
11188;DHT22;5650;52.700;7.306;2023-10-31T06:42:51;10.70;99.90
11188;DHT22;5650;52.700;7.306;2023-10-31T06:45:23;10.70;99.90
11188;DHT22;5650;52.700;7.306;2023-10-31T06:47:50;10.70;99.90
11188;DHT22;5650;52.700;7.306;2023-10-31T06:50:26;10.70;99.90
11188;DHT22;5650;52.700;7.306;2023-10-31T06:52:54;10.70;99.90
11188;DHT22;5650;52.700;7.306;2023-10-31T06:55:33;10.70;99.90
11188;DHT22;5650;52.700;7.306;2023-10-31T06:58:04;10.70;99.90
11188;DHT22;5650;52.700;7.306;2023-10-31T07:00:40;10.70;99.90
11188;DHT22;5650;52.700;7.306;2023-10-31T07:03:07;10.70;99.90
11188;DHT22;5650;52.700;7.306;2023-10-31T07:05:40;10.70;99.90
11188;DHT22;5650;52.700;7.306;2023-10-31T07:08:10;10.70;99.90
11188;DHT22;5650;52.700;7.306;2023-10-31T07:10:37;10.80;99.90
11188;DHT22;5650;52.700;7.306;2023-10-31T07:13:07;10.80;99.90
11188;DHT22;5650;52.700;7.306;2023-10-31T07:15:39;10.70;99.90
11188;DHT22;5650;52.700;7.306;2023-10-31T07:18:09;10.70;99.90
11188;DHT22;5650;52.700;7.306;2023-10-31T07:20:36;10.70;99.90
11188;DHT22;5650;52.700;7.306;2023-10-31T07:23:09;10.70;99.90
11188;DHT22;5650;52.700;7.306;2023-10-31T07:25:42;10.70;99.90
11188;DHT22;5650;52.700;7.306;2023-10-31T07:28:18;10.70;99.90
11188;DHT22;5650;52.700;7.306;2023-10-31T07:30:50;10.70;99.90
11188;DHT22;5650;52.700;7.306;2023-10-31T07:33:26;10.70;99.90
11188;DHT22;5650;52.700;7.306;2023-10-31T07:35:53;10.70;99.90
11188;DHT22;5650;52.700;7.306;2023-10-31T07:38:25;10.70;99.90
11188;DHT22;5650;52.700;7.306;2023-10-31T07:40:52;10.70;99.90
11188;DHT22;5650;52.700;7.306;2023-10-31T07:43:22;10.70;99.90
11188;DHT22;5650;52.700;7.306;2023-10-31T07:45:54;10.80;99.90
11188;DHT22;5650;52.700;7.306;2023-10-31T07:48:21;10.80;99.90
11188;DHT22;5650;52.700;7.306;2023-10-31T07:50:48;10.80;99.90
11188;DHT22;5650;52.700;7.306;2023-10-31T07:53:15;10.90;99.90
11188;DHT22;5650;52.700;7.306;2023-10-31T07:55:46;10.80;99.90
11188;DHT22;5650;52.700;7.306;2023-10-31T07:58:13;10.90;99.90
11188;DHT22;5650;52.700;7.306;2023-10-31T08:00:43;10.90;99.90
11188;DHT22;5650;52.700;7.306;2023-10-31T08:03:12;10.90;99.90
11188;DHT22;5650;52.700;7.306;2023-10-31T08:05:45;10.90;99.90
11188;DHT22;5650;52.700;7.306;2023-10-31T08:08:12;10.90;99.90
11188;DHT22;5650;52.700;7.306;2023-10-31T08:10:42;10.90;99.90
11188;DHT22;5650;52.700;7.306;2023-10-31T08:13:12;11.00;99.90
11188;DHT22;5650;52.700;7.306;2023-10-31T08:15:39;11.00;99.90
11188;DHT22;5650;52.700;7.306;2023-10-31T08:18:14;11.00;99.90
11188;DHT22;5650;52.700;7.306;2023-10-31T08:20:44;11.10;99.90
11188;DHT22;5650;52.700;7.306;2023-10-31T08:23:14;11.10;99.90
11188;DHT22;5650;52.700;7.306;2023-10-31T08:25:44;11.10;99.90
11188;DHT22;5650;52.700;7.306;2023-10-31T08:28:12;11.10;99.90
11188;DHT22;5650;52.700;7.306;2023-10-31T08:30:39;11.20;99.90
11188;DHT22;5650;52.700;7.306;2023-10-31T08:36:29;11.20;99.90
11188;DHT22;5650;52.700;7.306;2023-10-31T08:38:59;11.20;99.90
11188;DHT22;5650;52.700;7.306;2023-10-31T08:41:26;11.20;99.90
11188;DHT22;5650;52.700;7.306;2023-10-31T08:47:05;11.20;99.90
11188;DHT22;5650;52.700;7.306;2023-10-31T08:49:35;11.20;99.90
11188;DHT22;5650;52.700;7.306;2023-10-31T08:52:07;11.20;99.90
11188;DHT22;5650;52.700;7.306;2023-10-31T08:54:34;11.20;99.90
11188;DHT22;5650;52.700;7.306;2023-10-31T08:57:08;11.30;99.90
11188;DHT22;5650;52.700;7.306;2023-10-31T08:59:35;11.30;99.90
11188;DHT22;5650;52.700;7.306;2023-10-31T09:02:08;11.40;99.90
11188;DHT22;5650;52.700;7.306;2023-10-31T09:04:35;11.50;99.90
11188;DHT22;5650;52.700;7.306;2023-10-31T09:07:07;11.50;99.90
11188;DHT22;5650;52.700;7.306;2023-10-31T09:09:38;11.60;99.90
11188;DHT22;5650;52.700;7.306;2023-10-31T09:12:06;11.70;99.90
11188;DHT22;5650;52.700;7.306;2023-10-31T09:14:39;11.80;99.90
11188;DHT22;5650;52.700;7.306;2023-10-31T09:17:07;11.90;99.90
11188;DHT22;5650;52.700;7.306;2023-10-31T09:19:38;12.00;99.90
11188;DHT22;5650;52.700;7.306;2023-10-31T09:22:09;12.10;99.90
11188;DHT22;5650;52.700;7.306;2023-10-31T09:24:36;12.10;99.90
11188;DHT22;5650;52.700;7.306;2023-10-31T09:27:10;12.20;99.90
11188;DHT22;5650;52.700;7.306;2023-10-31T09:29:37;12.30;99.90
11188;DHT22;5650;52.700;7.306;2023-10-31T09:32:15;12.30;99.90
11188;DHT22;5650;52.700;7.306;2023-10-31T09:34:42;12.30;99.90
11188;DHT22;5650;52.700;7.306;2023-10-31T09:37:14;12.30;99.90
11188;DHT22;5650;52.700;7.306;2023-10-31T09:39:42;12.30;99.90
11188;DHT22;5650;52.700;7.306;2023-10-31T09:42:13;12.30;99.90
11188;DHT22;5650;52.700;7.306;2023-10-31T09:44:40;12.40;99.90
11188;DHT22;5650;52.700;7.306;2023-10-31T09:47:14;12.40;99.90
11188;DHT22;5650;52.700;7.306;2023-10-31T09:49:54;12.40;99.90
11188;DHT22;5650;52.700;7.306;2023-10-31T09:52:23;12.50;99.90
11188;DHT22;5650;52.700;7.306;2023-10-31T09:54:52;12.50;99.90
11188;DHT22;5650;52.700;7.306;2023-10-31T09:57:20;12.60;99.90
11188;DHT22;5650;52.700;7.306;2023-10-31T09:59:47;12.70;99.90
11188;DHT22;5650;52.700;7.306;2023-10-31T10:02:27;12.80;99.90
11188;DHT22;5650;52.700;7.306;2023-10-31T10:04:54;12.90;99.90
11188;DHT22;5650;52.700;7.306;2023-10-31T10:07:26;13.00;99.90
11188;DHT22;5650;52.700;7.306;2023-10-31T10:09:53;13.00;99.90
11188;DHT22;5650;52.700;7.306;2023-10-31T10:12:29;13.10;99.90
11188;DHT22;5650;52.700;7.306;2023-10-31T10:15:10;13.20;99.90
11188;DHT22;5650;52.700;7.306;2023-10-31T10:17:38;13.20;99.90
11188;DHT22;5650;52.700;7.306;2023-10-31T10:20:06;13.30;99.90
11188;DHT22;5650;52.700;7.306;2023-10-31T10:22:40;13.30;99.90
11188;DHT22;5650;52.700;7.306;2023-10-31T10:25:08;13.30;99.90
11188;DHT22;5650;52.700;7.306;2023-10-31T10:27:37;13.30;99.90
11188;DHT22;5650;52.700;7.306;2023-10-31T10:30:06;13.30;99.90
11188;DHT22;5650;52.700;7.306;2023-10-31T10:32:34;13.30;99.90
11188;DHT22;5650;52.700;7.306;2023-10-31T10:35:07;13.30;99.90
11188;DHT22;5650;52.700;7.306;2023-10-31T10:37:38;13.20;99.90
11188;DHT22;5650;52.700;7.306;2023-10-31T10:40:10;13.20;99.90
11188;DHT22;5650;52.700;7.306;2023-10-31T10:42:44;13.10;99.90
11188;DHT22;5650;52.700;7.306;2023-10-31T10:45:13;13.00;99.90
11188;DHT22;5650;52.700;7.306;2023-10-31T10:47:43;13.00;99.90
11188;DHT22;5650;52.700;7.306;2023-10-31T10:50:20;12.90;99.90
11188;DHT22;5650;52.700;7.306;2023-10-31T10:53:05;12.80;99.90
11188;DHT22;5650;52.700;7.306;2023-10-31T10:55:39;12.70;99.90
11188;DHT22;5650;52.700;7.306;2023-10-31T10:58:18;12.60;99.90
11188;DHT22;5650;52.700;7.306;2023-10-31T11:00:50;12.60;99.90
11188;DHT22;5650;52.700;7.306;2023-10-31T11:03:20;12.60;99.90
11188;DHT22;5650;52.700;7.306;2023-10-31T11:05:51;12.60;99.90
11188;DHT22;5650;52.700;7.306;2023-10-31T11:08:23;12.60;99.90
11188;DHT22;5650;52.700;7.306;2023-10-31T11:10:53;12.60;99.90
11188;DHT22;5650;52.700;7.306;2023-10-31T11:13:22;12.60;99.90
11188;DHT22;5650;52.700;7.306;2023-10-31T11:15:53;12.60;99.90
11188;DHT22;5650;52.700;7.306;2023-10-31T11:18:24;12.60;99.90
11188;DHT22;5650;52.700;7.306;2023-10-31T11:20:52;12.60;99.90
11188;DHT22;5650;52.700;7.306;2023-10-31T11:23:21;12.60;99.90
11188;DHT22;5650;52.700;7.306;2023-10-31T11:25:57;12.60;99.90
11188;DHT22;5650;52.700;7.306;2023-10-31T11:28:36;12.60;99.90
11188;DHT22;5650;52.700;7.306;2023-10-31T11:31:03;12.50;99.90
11188;DHT22;5650;52.700;7.306;2023-10-31T11:33:33;12.40;99.90
11188;DHT22;5650;52.700;7.306;2023-10-31T11:36:00;12.40;99.90
11188;DHT22;5650;52.700;7.306;2023-10-31T11:38:31;12.30;99.90
11188;DHT22;5650;52.700;7.306;2023-10-31T11:41:04;12.40;99.90
11188;DHT22;5650;52.700;7.306;2023-10-31T11:43:51;12.40;99.90
11188;DHT22;5650;52.700;7.306;2023-10-31T11:46:19;12.40;99.90
11188;DHT22;5650;52.700;7.306;2023-10-31T11:48:50;12.40;99.90
11188;DHT22;5650;52.700;7.306;2023-10-31T11:51:18;12.40;99.90
11188;DHT22;5650;52.700;7.306;2023-10-31T11:53:50;12.50;99.90
11188;DHT22;5650;52.700;7.306;2023-10-31T11:56:19;12.50;99.90
11188;DHT22;5650;52.700;7.306;2023-10-31T11:58:55;12.40;99.90
11188;DHT22;5650;52.700;7.306;2023-10-31T12:01:22;12.40;99.90
11188;DHT22;5650;52.700;7.306;2023-10-31T12:03:55;12.40;99.90
11188;DHT22;5650;52.700;7.306;2023-10-31T12:06:22;12.40;99.90
11188;DHT22;5650;52.700;7.306;2023-10-31T12:08:51;12.40;99.90
11188;DHT22;5650;52.700;7.306;2023-10-31T12:11:19;12.50;99.90
11188;DHT22;5650;52.700;7.306;2023-10-31T12:14:00;12.50;99.90
11188;DHT22;5650;52.700;7.306;2023-10-31T12:16:35;12.60;99.90
11188;DHT22;5650;52.700;7.306;2023-10-31T12:19:07;12.60;99.90
11188;DHT22;5650;52.700;7.306;2023-10-31T12:21:37;12.70;99.90
11188;DHT22;5650;52.700;7.306;2023-10-31T12:24:08;12.80;99.90
11188;DHT22;5650;52.700;7.306;2023-10-31T12:26:36;12.90;99.90
11188;DHT22;5650;52.700;7.306;2023-10-31T12:29:11;13.00;99.90
11188;DHT22;5650;52.700;7.306;2023-10-31T12:31:44;13.00;99.90
11188;DHT22;5650;52.700;7.306;2023-10-31T12:34:20;13.10;99.90
11188;DHT22;5650;52.700;7.306;2023-10-31T12:36:48;13.00;99.90
11188;DHT22;5650;52.700;7.306;2023-10-31T12:39:25;13.00;99.90
11188;DHT22;5650;52.700;7.306;2023-10-31T12:41:52;12.90;99.90
11188;DHT22;5650;52.700;7.306;2023-10-31T12:44:23;12.80;99.90
11188;DHT22;5650;52.700;7.306;2023-10-31T12:46:52;12.70;99.90
11188;DHT22;5650;52.700;7.306;2023-10-31T12:49:22;12.60;99.90
11188;DHT22;5650;52.700;7.306;2023-10-31T12:51:57;12.50;99.90
11188;DHT22;5650;52.700;7.306;2023-10-31T12:54:30;12.50;99.90
11188;DHT22;5650;52.700;7.306;2023-10-31T12:57:01;12.60;99.90
11188;DHT22;5650;52.700;7.306;2023-10-31T12:59:30;12.70;99.90
11188;DHT22;5650;52.700;7.306;2023-10-31T13:01:57;12.70;99.90
11188;DHT22;5650;52.700;7.306;2023-10-31T13:04:25;12.70;99.90
11188;DHT22;5650;52.700;7.306;2023-10-31T13:06:59;12.70;99.90
11188;DHT22;5650;52.700;7.306;2023-10-31T13:09:32;12.80;99.90
11188;DHT22;5650;52.700;7.306;2023-10-31T13:12:01;12.90;99.90
11188;DHT22;5650;52.700;7.306;2023-10-31T13:14:29;13.00;99.90
11188;DHT22;5650;52.700;7.306;2023-10-31T13:16:56;13.00;99.90
11188;DHT22;5650;52.700;7.306;2023-10-31T13:19:24;13.20;99.90
11188;DHT22;5650;52.700;7.306;2023-10-31T13:21:51;13.30;99.90
11188;DHT22;5650;52.700;7.306;2023-10-31T13:24:19;13.40;99.90
11188;DHT22;5650;52.700;7.306;2023-10-31T13:26:47;13.40;99.90
11188;DHT22;5650;52.700;7.306;2023-10-31T13:29:17;13.40;99.90
11188;DHT22;5650;52.700;7.306;2023-10-31T13:31:44;13.40;99.90
11188;DHT22;5650;52.700;7.306;2023-10-31T13:34:11;13.40;99.90
11188;DHT22;5650;52.700;7.306;2023-10-31T13:36:38;13.30;99.90
11188;DHT22;5650;52.700;7.306;2023-10-31T13:39:05;13.20;99.90
11188;DHT22;5650;52.700;7.306;2023-10-31T13:41:34;13.20;99.90
11188;DHT22;5650;52.700;7.306;2023-10-31T13:44:03;13.10;99.90
11188;DHT22;5650;52.700;7.306;2023-10-31T13:46:31;13.00;99.90
11188;DHT22;5650;52.700;7.306;2023-10-31T13:48:58;12.90;99.90
11188;DHT22;5650;52.700;7.306;2023-10-31T13:51:25;12.90;99.90
11188;DHT22;5650;52.700;7.306;2023-10-31T13:53:52;12.90;99.90
11188;DHT22;5650;52.700;7.306;2023-10-31T13:56:19;12.90;99.90
11188;DHT22;5650;52.700;7.306;2023-10-31T13:58:47;12.80;99.90
11188;DHT22;5650;52.700;7.306;2023-10-31T14:01:16;12.70;99.90
11188;DHT22;5650;52.700;7.306;2023-10-31T14:03:45;12.70;99.90
11188;DHT22;5650;52.700;7.306;2023-10-31T14:06:12;12.60;99.90
11188;DHT22;5650;52.700;7.306;2023-10-31T14:08:39;12.50;99.90
11188;DHT22;5650;52.700;7.306;2023-10-31T14:11:07;12.30;99.90
11188;DHT22;5650;52.700;7.306;2023-10-31T14:13:35;12.30;99.90
11188;DHT22;5650;52.700;7.306;2023-10-31T14:16:04;12.20;99.90
11188;DHT22;5650;52.700;7.306;2023-10-31T14:18:39;12.30;99.90
11188;DHT22;5650;52.700;7.306;2023-10-31T14:21:16;12.30;99.90
11188;DHT22;5650;52.700;7.306;2023-10-31T14:23:43;12.30;99.90
11188;DHT22;5650;52.700;7.306;2023-10-31T14:26:11;12.40;99.90
11188;DHT22;5650;52.700;7.306;2023-10-31T14:28:39;12.30;99.90
11188;DHT22;5650;52.700;7.306;2023-10-31T14:31:07;12.30;99.90
11188;DHT22;5650;52.700;7.306;2023-10-31T14:33:37;12.30;99.90
11188;DHT22;5650;52.700;7.306;2023-10-31T14:36:05;12.20;99.90
11188;DHT22;5650;52.700;7.306;2023-10-31T14:38:33;12.20;99.90
11188;DHT22;5650;52.700;7.306;2023-10-31T14:41:00;12.20;99.90
11188;DHT22;5650;52.700;7.306;2023-10-31T14:43:27;12.20;99.90
11188;DHT22;5650;52.700;7.306;2023-10-31T14:45:54;12.20;99.90
11188;DHT22;5650;52.700;7.306;2023-10-31T14:48:22;12.10;99.90
11188;DHT22;5650;52.700;7.306;2023-10-31T14:50:51;12.10;99.90
11188;DHT22;5650;52.700;7.306;2023-10-31T14:53:18;12.10;99.90
11188;DHT22;5650;52.700;7.306;2023-10-31T14:55:46;12.10;99.90
11188;DHT22;5650;52.700;7.306;2023-10-31T14:58:13;12.10;99.90
11188;DHT22;5650;52.700;7.306;2023-10-31T15:00:40;12.20;99.90
11188;DHT22;5650;52.700;7.306;2023-10-31T15:03:07;12.20;99.90
11188;DHT22;5650;52.700;7.306;2023-10-31T15:05:35;12.10;99.90
11188;DHT22;5650;52.700;7.306;2023-10-31T15:08:03;12.10;99.90
11188;DHT22;5650;52.700;7.306;2023-10-31T15:10:32;12.00;99.90
11188;DHT22;5650;52.700;7.306;2023-10-31T15:12:59;12.00;99.90
11188;DHT22;5650;52.700;7.306;2023-10-31T15:15:26;11.90;99.90
11188;DHT22;5650;52.700;7.306;2023-10-31T15:17:53;11.90;99.90
11188;DHT22;5650;52.700;7.306;2023-10-31T15:20:20;11.80;99.90
11188;DHT22;5650;52.700;7.306;2023-10-31T15:22:50;11.80;99.90
11188;DHT22;5650;52.700;7.306;2023-10-31T15:25:21;11.80;99.90
11188;DHT22;5650;52.700;7.306;2023-10-31T15:27:48;11.70;99.90
11188;DHT22;5650;52.700;7.306;2023-10-31T15:30:20;11.70;99.90
11188;DHT22;5650;52.700;7.306;2023-10-31T15:32:50;11.60;99.90
11188;DHT22;5650;52.700;7.306;2023-10-31T15:35:18;11.50;99.90
11188;DHT22;5650;52.700;7.306;2023-10-31T15:37:48;11.50;99.90
11188;DHT22;5650;52.700;7.306;2023-10-31T15:40:18;11.50;99.90
11188;DHT22;5650;52.700;7.306;2023-10-31T15:42:53;11.50;99.90
11188;DHT22;5650;52.700;7.306;2023-10-31T15:45:23;11.40;99.90
11188;DHT22;5650;52.700;7.306;2023-10-31T15:47:59;11.30;99.90
11188;DHT22;5650;52.700;7.306;2023-10-31T15:50:29;11.30;99.90
11188;DHT22;5650;52.700;7.306;2023-10-31T15:52:56;11.30;99.90
11188;DHT22;5650;52.700;7.306;2023-10-31T15:55:23;11.20;99.90
11188;DHT22;5650;52.700;7.306;2023-10-31T15:57:52;11.20;99.90
11188;DHT22;5650;52.700;7.306;2023-10-31T16:00:20;11.10;99.90
11188;DHT22;5650;52.700;7.306;2023-10-31T16:02:46;11.10;99.90
11188;DHT22;5650;52.700;7.306;2023-10-31T16:05:16;11.00;99.90
11188;DHT22;5650;52.700;7.306;2023-10-31T16:07:43;10.90;99.90